Time,TemperatureF,DewpointF,PressureIn,WindDirection,WindDirectionDegrees,WindSpeedMPH,WindSpeedGustMPH,Humidity,HourlyPrecipIn,Conditions,Clouds,dailyrainin,SolarRadiationWatts/m^2,SoftwareType,DateUTC
2013-04-27 00:01:00,48.3,31.0,30.49,SSW,192,0.0,1.0,51,0.00,,,0.00,0,Wunderground v.1.15,2013-04-27 04:01:00,
2013-04-27 00:04:00,48.2,29.4,30.49,SSW,192,0.0,1.0,48,0.00,,,0.00,0,Wunderground v.1.15,2013-04-27 04:04:00,
2013-04-27 00:05:00,48.3,29.0,30.49,SSW,192,0.0,1.0,47,0.00,,,0.00,0,Wunderground v.1.15,2013-04-27 04:05:00,
2013-04-27 00:11:00,48.5,28.6,30.49,SSW,192,0.0,1.0,46,0.00,,,0.00,0,Wunderground v.1.15,2013-04-27 04:11:00,
2013-04-27 00:13:00,48.5,29.2,30.49,SSW,192,0.0,1.0,47,0.00,,,0.00,0,Wunderground v.1.15,2013-04-27 04:13:00,
2013-04-27 00:15:00,48.5,30.7,30.49,SSW,192,1.0,1.0,50,0.00,,,0.00,0,Wunderground v.1.15,2013-04-27 04:15:00,
2013-04-27 00:20:00,48.1,31.3,30.49,SSW,192,0.0,1.0,52,0.00,,,0.00,0,Wunderground v.1.15,2013-04-27 04:20:00,
2013-04-27 00:25:00,47.7,32.3,30.49,SSW,192,0.0,1.0,55,0.00,,,0.00,0,Wunderground v.1.15,2013-04-27 04:25:00,
2013-04-27 00:31:00,47.1,33.5,30.49,SSW,192,0.0,1.0,59,0.00,,,0.00,0,Wunderground v.1.15,2013-04-27 04:31:00,
2013-04-27 00:37:00,46.7,32.7,30.49,SSW,192,0.0,1.0,58,0.00,,,0.00,0,Wunderground v.1.15,2013-04-27 04:37:00,
2013-04-27 00:43:00,46.4,33.3,30.49,South,190,0.0,1.0,60,0.00,,,0.00,0,Wunderground v.1.15,2013-04-27 04:43:00,
2013-04-27 00:49:00,46.0,33.3,30.49,South,190,1.0,2.0,61,0.00,,,0.00,0,Wunderground v.1.15,2013-04-27 04:49:00,
2013-04-27 00:55:00,45.8,32.7,30.49,South,190,1.0,1.0,60,0.00,,,0.00,0,Wunderground v.1.15,2013-04-27 04:55:00,
2013-04-27 01:00:00,45.8,32.3,30.49,South,191,0.0,0.0,59,0.00,,,0.00,0,Wunderground v.1.15,2013-04-27 05:00:00,
2013-04-27 01:06:00,46.2,30.5,30.49,SSW,207,1.0,3.0,54,0.00,,,0.00,0,Wunderground v.1.15,2013-04-27 05:06:00,
2013-04-27 01:11:00,46.4,31.1,30.48,South,183,1.0,2.0,55,0.00,,,0.00,0,Wunderground v.1.15,2013-04-27 05:11:00,
2013-04-27 01:17:00,46.1,30.8,30.49,South,183,1.0,2.0,55,0.00,,,0.00,0,Wunderground v.1.15,2013-04-27 05:17:00,
2013-04-27 01:22:00,45.8,31.9,30.49,South,183,1.0,1.0,58,0.00,,,0.00,0,Wunderground v.1.15,2013-04-27 05:22:00,
2013-04-27 01:28:00,45.4,31.5,30.49,South,183,1.0,1.0,58,0.00,,,0.00,0,Wunderground v.1.15,2013-04-27 05:28:00,
2013-04-27 01:34:00,45.3,32.6,30.49,South,183,0.0,1.0,61,0.00,,,0.00,0,Wunderground v.1.15,2013-04-27 05:34:00,
2013-04-27 01:39:00,45.1,32.0,30.49,SSW,193,0.0,1.0,60,0.00,,,0.00,0,Wunderground v.1.15,2013-04-27 05:39:00,
2013-04-27 01:45:00,44.9,31.0,30.49,SSW,198,0.0,1.0,58,0.00,,,0.00,0,Wunderground v.1.15,2013-04-27 05:45:00,
2013-04-27 01:51:00,44.9,31.0,30.48,SSW,198,1.0,2.0,58,0.00,,,0.00,0,Wunderground v.1.15,2013-04-27 05:51:00,
2013-04-27 01:57:00,44.6,31.6,30.48,SSW,196,1.0,2.0,60,0.00,,,0.00,0,Wunderground v.1.15,2013-04-27 05:57:00,
2013-04-27 02:03:00,44.3,31.3,30.48,SSW,196,1.0,1.0,60,0.00,,,0.00,0,Wunderground v.1.15,2013-04-27 06:03:00,
2013-04-27 02:08:00,44.2,31.2,30.48,SSW,196,0.0,1.0,60,0.00,,,0.00,0,Wunderground v.1.15,2013-04-27 06:08:00,
2013-04-27 02:14:00,44.1,30.7,30.49,SSW,196,0.0,0.0,59,0.00,,,0.00,0,Wunderground v.1.15,2013-04-27 06:14:00,
2013-04-27 02:20:00,43.8,32.4,30.49,SSE,166,0.0,1.0,64,0.00,,,0.00,0,Wunderground v.1.15,2013-04-27 06:20:00,
2013-04-27 02:26:00,43.1,32.5,30.49,SSE,166,1.0,1.0,66,0.00,,,0.00,0,Wunderground v.1.15,2013-04-27 06:26:00,
2013-04-27 02:31:00,42.8,32.2,30.49,SSE,166,1.0,1.0,66,0.00,,,0.00,0,Wunderground v.1.15,2013-04-27 06:31:00,
2013-04-27 02:39:00,42.5,32.3,30.48,SSE,166,1.0,2.0,67,0.00,,,0.00,0,Wunderground v.1.15,2013-04-27 06:39:00,
2013-04-27 02:45:00,42.3,32.1,30.48,South,171,1.0,2.0,67,0.00,,,0.00,0,Wunderground v.1.15,2013-04-27 06:45:00,
2013-04-27 02:51:00,42.2,31.6,30.48,South,177,1.0,1.0,66,0.00,,,0.00,0,Wunderground v.1.15,2013-04-27 06:51:00,
2013-04-27 02:57:00,42.2,32.0,30.48,West,260,0.0,2.0,67,0.00,,,0.00,0,Wunderground v.1.15,2013-04-27 06:57:00,
2013-04-27 03:03:00,42.3,32.1,30.48,South,175,1.0,1.0,67,0.00,,,0.00,0,Wunderground v.1.15,2013-04-27 07:03:00,
2013-04-27 03:08:00,42.2,32.0,30.48,South,175,1.0,1.0,67,0.00,,,0.00,0,Wunderground v.1.15,2013-04-27 07:08:00,
2013-04-27 03:14:00,42.0,32.2,30.48,South,175,1.0,2.0,68,0.00,,,0.00,0,Wunderground v.1.15,2013-04-27 07:14:00,
2013-04-27 03:19:00,41.9,32.5,30.48,South,175,1.0,2.0,69,0.00,,,0.00,0,Wunderground v.1.15,2013-04-27 07:19:00,
2013-04-27 03:25:00,41.7,32.3,30.48,South,175,1.0,2.0,69,0.00,,,0.00,0,Wunderground v.1.15,2013-04-27 07:25:00,
2013-04-27 03:30:00,41.6,32.5,30.49,South,175,0.0,0.0,70,0.00,,,0.00,0,Wunderground v.1.15,2013-04-27 07:30:00,
2013-04-27 03:36:00,41.5,32.4,30.48,South,175,0.0,1.0,70,0.00,,,0.00,0,Wunderground v.1.15,2013-04-27 07:36:00,
2013-04-27 03:42:00,41.4,32.0,30.48,South,175,0.0,1.0,69,0.00,,,0.00,0,Wunderground v.1.15,2013-04-27 07:42:00,
2013-04-27 03:48:00,41.4,32.0,30.48,South,175,1.0,1.0,69,0.00,,,0.00,0,Wunderground v.1.15,2013-04-27 07:48:00,
2013-04-27 03:54:00,41.3,31.9,30.48,South,175,1.0,1.0,69,0.00,,,0.00,0,Wunderground v.1.15,2013-04-27 07:54:00,
2013-04-27 04:00:00,41.3,31.9,30.48,South,175,0.0,1.0,69,0.00,,,0.00,0,Wunderground v.1.15,2013-04-27 08:00:00,
2013-04-27 04:06:00,41.2,31.8,30.48,South,190,0.0,1.0,69,0.00,,,0.00,0,Wunderground v.1.15,2013-04-27 08:06:00,
2013-04-27 04:12:00,41.1,32.1,30.49,South,191,0.0,1.0,70,0.00,,,0.00,0,Wunderground v.1.15,2013-04-27 08:12:00,
2013-04-27 04:17:00,41.1,32.1,30.49,South,186,0.0,1.0,70,0.00,,,0.00,0,Wunderground v.1.15,2013-04-27 08:17:00,
2013-04-27 04:22:00,41.1,31.7,30.49,West,271,0.0,1.0,69,0.00,,,0.00,0,Wunderground v.1.15,2013-04-27 08:22:00,
2013-04-27 04:28:00,41.1,31.7,30.49,West,271,0.0,1.0,69,0.00,,,0.00,0,Wunderground v.1.15,2013-04-27 08:28:00,
2013-04-27 04:33:00,41.1,32.1,30.49,West,279,0.0,1.0,70,0.00,,,0.00,0,Wunderground v.1.15,2013-04-27 08:33:00,
2013-04-27 04:39:00,40.9,31.5,30.49,WNW,288,1.0,1.0,69,0.00,,,0.00,0,Wunderground v.1.15,2013-04-27 08:39:00,
2013-04-27 04:44:00,40.7,31.7,30.49,West,259,1.0,1.0,70,0.00,,,0.00,0,Wunderground v.1.15,2013-04-27 08:44:00,
2013-04-27 04:50:00,40.3,32.0,30.48,SW,219,1.0,1.0,72,0.00,,,0.00,0,Wunderground v.1.15,2013-04-27 08:50:00,
2013-04-27 04:56:00,40.3,32.0,30.48,SSW,207,1.0,4.0,72,0.00,,,0.00,0,Wunderground v.1.15,2013-04-27 08:56:00,
2013-04-27 05:02:00,40.4,32.1,30.48,SSW,198,1.0,2.0,72,0.00,,,0.00,0,Wunderground v.1.15,2013-04-27 09:02:00,
2013-04-27 05:07:00,40.4,32.1,30.48,SSW,202,2.0,2.0,72,0.00,,,0.00,0,Wunderground v.1.15,2013-04-27 09:07:00,
2013-04-27 05:13:00,40.4,32.4,30.48,SSW,209,1.0,2.0,73,0.00,,,0.00,0,Wunderground v.1.15,2013-04-27 09:13:00,
2013-04-27 05:18:00,40.2,32.6,30.48,East,93,1.0,2.0,74,0.00,,,0.00,0,Wunderground v.1.15,2013-04-27 09:18:00,
2013-04-27 05:24:00,40.1,32.8,30.48,East,80,1.0,2.0,75,0.00,,,0.00,0,Wunderground v.1.15,2013-04-27 09:24:00,
2013-04-27 05:29:00,39.9,32.9,30.48,ESE,107,1.0,2.0,76,0.00,,,0.00,0,Wunderground v.1.15,2013-04-27 09:29:00,
2013-04-27 05:35:00,39.7,33.1,30.48,NNE,25,1.0,2.0,77,0.00,,,0.00,0,Wunderground v.1.15,2013-04-27 09:35:00,
2013-04-27 05:40:00,39.6,33.0,30.48,WNW,290,1.0,2.0,77,0.00,,,0.00,0,Wunderground v.1.15,2013-04-27 09:40:00,
2013-04-27 05:46:00,39.5,32.6,30.48,NNW,347,1.0,2.0,76,0.00,,,0.00,0,Wunderground v.1.15,2013-04-27 09:46:00,
2013-04-27 05:51:00,39.5,32.2,30.49,East,81,1.0,2.0,75,0.00,,,0.00,0,Wunderground v.1.15,2013-04-27 09:51:00,
2013-04-27 05:57:00,39.4,31.8,30.49,South,179,1.0,2.0,74,0.00,,,0.00,0,Wunderground v.1.15,2013-04-27 09:57:00,
2013-04-27 06:02:00,39.5,31.6,30.50,NE,44,1.0,2.0,73,0.00,,,0.00,0,Wunderground v.1.15,2013-04-27 10:02:00,
2013-04-27 06:08:00,39.4,31.5,30.49,NNW,342,1.0,2.0,73,0.00,,,0.00,0,Wunderground v.1.15,2013-04-27 10:08:00,
2013-04-27 06:14:00,39.4,31.5,30.49,NW,309,1.0,2.0,73,0.00,,,0.00,5,Wunderground v.1.15,2013-04-27 10:14:00,
2013-04-27 06:20:00,39.3,31.0,30.50,NW,309,0.0,1.0,72,0.00,,,0.00,9,Wunderground v.1.15,2013-04-27 10:20:00,
2013-04-27 06:25:00,39.3,31.4,30.50,NW,306,0.0,1.0,73,0.00,,,0.00,11,Wunderground v.1.15,2013-04-27 10:25:00,
2013-04-27 06:31:00,39.2,31.3,30.50,NW,306,0.0,1.0,73,0.00,,,0.00,12,Wunderground v.1.15,2013-04-27 10:31:00,
2013-04-27 06:37:00,39.3,31.0,30.50,NW,311,1.0,1.0,72,0.00,,,0.00,16,Wunderground v.1.15,2013-04-27 10:37:00,
2013-04-27 06:42:00,39.4,31.1,30.50,NW,309,1.0,1.0,72,0.00,,,0.00,19,Wunderground v.1.15,2013-04-27 10:42:00,
2013-04-27 06:48:00,39.4,31.1,30.50,WNW,300,0.0,1.0,72,0.00,,,0.00,25,Wunderground v.1.15,2013-04-27 10:48:00,
2013-04-27 06:54:00,39.4,31.5,30.50,WNW,302,1.0,1.0,73,0.00,,,0.00,30,Wunderground v.1.15,2013-04-27 10:54:00,
2013-04-27 07:00:00,39.4,31.5,30.50,WNW,300,0.0,0.0,73,0.00,,,0.00,33,Wunderground v.1.15,2013-04-27 11:00:00,
2013-04-27 07:05:00,39.5,31.6,30.51,SSW,208,1.0,3.0,73,0.00,,,0.00,37,Wunderground v.1.15,2013-04-27 11:05:00,
2013-04-27 07:11:00,39.5,31.6,30.50,SSW,203,1.0,2.0,73,0.00,,,0.00,39,Wunderground v.1.15,2013-04-27 11:11:00,
2013-04-27 07:17:00,39.7,32.1,30.50,South,170,2.0,5.0,74,0.00,,,0.00,42,Wunderground v.1.15,2013-04-27 11:17:00,
2013-04-27 07:23:00,39.8,31.8,30.51,SSE,159,1.0,2.0,73,0.00,,,0.00,46,Wunderground v.1.15,2013-04-27 11:23:00,
2013-04-27 07:28:00,40.0,31.7,30.50,ESE,107,1.0,2.0,72,0.00,,,0.00,49,Wunderground v.1.15,2013-04-27 11:28:00,
2013-04-27 07:34:00,40.2,31.9,30.51,South,178,1.0,4.0,72,0.00,,,0.00,51,Wunderground v.1.15,2013-04-27 11:34:00,
2013-04-27 07:39:00,40.5,32.2,30.51,South,183,1.0,4.0,72,0.00,,,0.00,53,Wunderground v.1.15,2013-04-27 11:39:00,
2013-04-27 07:44:00,40.8,32.1,30.51,SSE,159,1.0,2.0,71,0.00,,,0.00,56,Wunderground v.1.15,2013-04-27 11:44:00,
2013-04-27 07:50:00,41.1,32.1,30.51,SSW,200,1.0,1.0,70,0.00,,,0.00,58,Wunderground v.1.15,2013-04-27 11:50:00,
2013-04-27 07:56:00,41.4,32.7,30.50,SSW,197,2.0,4.0,71,0.00,,,0.00,77,Wunderground v.1.15,2013-04-27 11:56:00,
2013-04-27 08:01:00,41.7,32.6,30.51,South,190,1.0,4.0,70,0.00,,,0.00,100,Wunderground v.1.15,2013-04-27 12:01:00,
2013-04-27 08:07:00,42.2,32.8,30.51,SSW,198,1.0,4.0,69,0.00,,,0.00,65,Wunderground v.1.15,2013-04-27 12:07:00,
2013-04-27 08:13:00,42.6,32.8,30.51,SSE,162,1.0,2.0,68,0.00,,,0.00,322,Wunderground v.1.15,2013-04-27 12:13:00,
2013-04-27 08:19:00,43.2,33.3,30.51,South,169,2.0,5.0,68,0.00,,,0.00,343,Wunderground v.1.15,2013-04-27 12:19:00,
2013-04-27 08:24:00,43.7,34.2,30.51,SSE,155,2.0,2.0,69,0.00,,,0.00,360,Wunderground v.1.15,2013-04-27 12:24:00,
2013-04-27 08:30:00,44.2,33.9,30.51,South,169,1.0,1.0,67,0.00,,,0.00,380,Wunderground v.1.15,2013-04-27 12:30:00,
2013-04-27 08:36:00,44.9,35.0,30.51,South,187,2.0,4.0,68,0.00,,,0.00,399,Wunderground v.1.15,2013-04-27 12:36:00,
2013-04-27 08:41:00,45.7,34.6,30.51,WSW,249,2.0,2.0,65,0.00,,,0.00,417,Wunderground v.1.15,2013-04-27 12:41:00,
2013-04-27 08:47:00,46.5,34.2,30.51,South,176,2.0,5.0,62,0.00,,,0.00,438,Wunderground v.1.15,2013-04-27 12:47:00,
2013-04-27 08:53:00,47.2,35.6,30.51,South,175,3.0,4.0,64,0.00,,,0.00,457,Wunderground v.1.15,2013-04-27 12:53:00,
2013-04-27 08:59:00,47.4,35.4,30.51,SE,140,2.0,4.0,63,0.00,,,0.00,476,Wunderground v.1.15,2013-04-27 12:59:00,
2013-04-27 09:04:00,48.1,35.7,30.51,SSE,154,2.0,2.0,62,0.00,,,0.00,494,Wunderground v.1.15,2013-04-27 13:04:00,
2013-04-27 09:10:00,48.3,35.5,30.51,SSE,156,2.0,3.0,61,0.00,,,0.00,512,Wunderground v.1.15,2013-04-27 13:10:00,
2013-04-27 09:15:00,48.7,36.3,30.50,SSE,161,2.0,3.0,62,0.00,,,0.00,527,Wunderground v.1.15,2013-04-27 13:15:00,
2013-04-27 09:21:00,49.2,36.7,30.50,SE,134,2.0,2.0,62,0.00,,,0.00,543,Wunderground v.1.15,2013-04-27 13:21:00,
2013-04-27 09:27:00,49.9,36.6,30.51,SSE,149,2.0,2.0,60,0.00,,,0.00,564,Wunderground v.1.15,2013-04-27 13:27:00,
2013-04-27 09:33:00,50.5,37.1,30.50,SSE,157,2.0,2.0,60,0.00,,,0.00,580,Wunderground v.1.15,2013-04-27 13:33:00,
2013-04-27 09:39:00,51.1,36.4,30.50,South,173,2.0,4.0,57,0.00,,,0.00,599,Wunderground v.1.15,2013-04-27 13:39:00,
2013-04-27 09:49:00,52.2,35.6,30.50,ESE,121,2.0,4.0,53,0.00,,,0.00,626,Wunderground v.1.15,2013-04-27 13:49:00,
2013-04-27 09:54:00,52.6,35.9,30.50,South,185,2.0,2.0,53,0.00,,,0.00,638,Wunderground v.1.15,2013-04-27 13:54:00,
2013-04-27 10:00:00,53.5,35.3,30.49,ENE,61,2.0,2.0,50,0.00,,,0.00,657,Wunderground v.1.15,2013-04-27 14:00:00,
2013-04-27 10:06:00,53.9,35.2,30.49,SE,146,2.0,4.0,49,0.00,,,0.00,671,Wunderground v.1.15,2013-04-27 14:06:00,
2013-04-27 10:12:00,54.4,35.1,30.49,SE,146,2.0,2.0,48,0.00,,,0.00,686,Wunderground v.1.15,2013-04-27 14:12:00,
2013-04-27 10:18:00,54.9,33.9,30.49,NW,311,2.0,4.0,45,0.00,,,0.00,705,Wunderground v.1.15,2013-04-27 14:18:00,
2013-04-27 10:24:00,55.5,33.9,30.49,East,83,2.0,2.0,44,0.00,,,0.00,719,Wunderground v.1.15,2013-04-27 14:24:00,
2013-04-27 10:30:00,56.2,35.7,30.49,WNW,302,1.0,5.0,46,0.00,,,0.00,729,Wunderground v.1.15,2013-04-27 14:30:00,
2013-04-27 10:35:00,56.6,33.8,30.49,North,360,2.0,5.0,42,0.00,,,0.00,742,Wunderground v.1.15,2013-04-27 14:35:00,
2013-04-27 10:41:00,56.9,33.4,30.49,NW,306,2.0,2.0,41,0.00,,,0.00,758,Wunderground v.1.15,2013-04-27 14:41:00,
2013-04-27 10:47:00,57.0,32.9,30.49,SE,130,3.0,6.0,40,0.00,,,0.00,772,Wunderground v.1.15,2013-04-27 14:47:00,
2013-04-27 10:53:00,56.9,32.8,30.49,SSE,155,4.0,7.0,40,0.00,,,0.00,780,Wunderground v.1.15,2013-04-27 14:53:00,
2013-04-27 10:59:00,57.1,33.6,30.49,ESE,115,5.0,7.0,41,0.00,,,0.00,791,Wunderground v.1.15,2013-04-27 14:59:00,
2013-04-27 11:05:00,57.7,34.1,30.49,West,274,4.0,6.0,41,0.00,,,0.00,803,Wunderground v.1.15,2013-04-27 15:05:00,
2013-04-27 11:11:00,58.3,32.8,30.48,SE,127,3.0,7.0,38,0.00,,,0.00,816,Wunderground v.1.15,2013-04-27 15:11:00,
2013-04-27 11:17:00,58.5,32.3,30.48,ESE,111,5.0,7.0,37,0.00,,,0.00,824,Wunderground v.1.15,2013-04-27 15:17:00,
2013-04-27 11:23:00,59.0,33.4,30.48,SE,138,5.0,6.0,38,0.00,,,0.00,835,Wunderground v.1.15,2013-04-27 15:23:00,
2013-04-27 11:29:00,59.2,32.2,30.48,SE,145,3.0,6.0,36,0.00,,,0.00,844,Wunderground v.1.15,2013-04-27 15:29:00,
2013-04-27 11:34:00,59.6,33.3,30.48,NW,309,3.0,4.0,37,0.00,,,0.00,849,Wunderground v.1.15,2013-04-27 15:34:00,
2013-04-27 11:40:00,60.3,32.5,30.48,WNW,293,2.0,3.0,35,0.00,,,0.00,860,Wunderground v.1.15,2013-04-27 15:40:00,
2013-04-27 11:46:00,60.8,32.2,30.48,WNW,302,3.0,4.0,34,0.00,,,0.00,868,Wunderground v.1.15,2013-04-27 15:46:00,
2013-04-27 11:51:00,61.1,33.2,30.47,SE,134,2.0,2.0,35,0.00,,,0.00,870,Wunderground v.1.15,2013-04-27 15:51:00,
2013-04-27 11:57:00,61.7,33.0,30.47,North,5,2.0,4.0,34,0.00,,,0.00,877,Wunderground v.1.15,2013-04-27 15:57:00,
2013-04-27 12:03:00,61.9,33.2,30.47,WNW,300,2.0,4.0,34,0.00,,,0.00,886,Wunderground v.1.15,2013-04-27 16:03:00,
2013-04-27 12:09:00,62.2,34.2,30.46,WSW,244,3.0,5.0,35,0.00,,,0.00,889,Wunderground v.1.15,2013-04-27 16:09:00,
2013-04-27 12:15:00,62.3,32.0,30.46,NNE,15,3.0,6.0,32,0.00,,,0.00,895,Wunderground v.1.15,2013-04-27 16:15:00,
2013-04-27 12:20:00,62.2,34.2,30.46,SE,134,3.0,5.0,35,0.00,,,0.00,900,Wunderground v.1.15,2013-04-27 16:20:00,
2013-04-27 12:26:00,62.5,33.7,30.45,SSE,161,4.0,9.0,34,0.00,,,0.00,905,Wunderground v.1.15,2013-04-27 16:26:00,
2013-04-27 12:31:00,62.8,31.7,30.45,SE,145,4.0,5.0,31,0.00,,,0.00,905,Wunderground v.1.15,2013-04-27 16:31:00,
2013-04-27 12:37:00,62.9,33.3,30.45,NNW,337,3.0,6.0,33,0.00,,,0.00,911,Wunderground v.1.15,2013-04-27 16:37:00,
2013-04-27 12:43:00,63.4,33.0,30.45,SSE,154,2.0,3.0,32,0.00,,,0.00,905,Wunderground v.1.15,2013-04-27 16:43:00,
2013-04-27 12:48:00,63.9,33.4,30.44,SE,137,1.0,4.0,32,0.00,,,0.00,909,Wunderground v.1.15,2013-04-27 16:48:00,
2013-04-27 12:54:00,63.8,31.7,30.44,East,93,2.0,4.0,30,0.00,,,0.00,909,Wunderground v.1.15,2013-04-27 16:54:00,
2013-04-27 13:00:00,63.9,32.6,30.43,SSW,196,3.0,4.0,31,0.00,,,0.00,907,Wunderground v.1.15,2013-04-27 17:00:00,
2013-04-27 13:05:00,64.1,33.6,30.43,ESE,113,3.0,5.0,32,0.00,,,0.00,907,Wunderground v.1.15,2013-04-27 17:05:00,
2013-04-27 13:11:00,64.9,31.0,30.43,North,355,2.0,3.0,28,0.00,,,0.00,907,Wunderground v.1.15,2013-04-27 17:11:00,
2013-04-27 13:17:00,65.1,33.7,30.42,NW,324,2.0,3.0,31,0.00,,,0.00,907,Wunderground v.1.15,2013-04-27 17:17:00,
2013-04-27 13:23:00,65.8,31.8,30.43,East,101,1.0,3.0,28,0.00,,,0.00,907,Wunderground v.1.15,2013-04-27 17:23:00,
2013-04-27 13:28:00,65.3,30.4,30.42,South,169,2.0,5.0,27,0.00,,,0.00,905,Wunderground v.1.15,2013-04-27 17:28:00,
2013-04-27 13:34:00,65.4,26.6,30.42,SE,140,4.0,8.0,23,0.00,,,0.00,902,Wunderground v.1.15,2013-04-27 17:34:00,
2013-04-27 13:39:00,65.4,29.6,30.42,SE,137,5.0,8.0,26,0.00,,,0.00,900,Wunderground v.1.15,2013-04-27 17:39:00,
2013-04-27 13:45:00,65.7,29.8,30.41,South,178,5.0,6.0,26,0.00,,,0.00,893,Wunderground v.1.15,2013-04-27 17:45:00,
2013-04-27 13:51:00,65.6,29.8,30.41,SSE,159,5.0,6.0,26,0.00,,,0.00,888,Wunderground v.1.15,2013-04-27 17:51:00,
2013-04-27 13:57:00,65.2,30.3,30.41,SE,135,5.0,7.0,27,0.00,,,0.00,882,Wunderground v.1.15,2013-04-27 17:57:00,
2013-04-27 14:03:00,65.7,29.8,30.41,ESE,105,5.0,6.0,26,0.00,,,0.00,875,Wunderground v.1.15,2013-04-27 18:03:00,
2013-04-27 14:09:00,66.1,30.2,30.41,SE,130,5.0,6.0,26,0.00,,,0.00,872,Wunderground v.1.15,2013-04-27 18:09:00,
2013-04-27 14:15:00,66.0,31.9,30.40,SE,132,4.0,8.0,28,0.00,,,0.00,863,Wunderground v.1.15,2013-04-27 18:15:00,
2013-04-27 14:20:00,66.2,30.3,30.40,South,174,4.0,4.0,26,0.00,,,0.00,858,Wunderground v.1.15,2013-04-27 18:20:00,
2013-04-27 14:26:00,66.8,30.8,30.40,SE,135,5.0,6.0,26,0.00,,,0.00,849,Wunderground v.1.15,2013-04-27 18:26:00,
2013-04-27 14:31:00,66.9,30.9,30.40,SE,128,4.0,6.0,26,0.00,,,0.00,842,Wunderground v.1.15,2013-04-27 18:31:00,
2013-04-27 14:37:00,66.8,31.7,30.39,SE,140,4.0,6.0,27,0.00,,,0.00,831,Wunderground v.1.15,2013-04-27 18:37:00,
2013-04-27 14:43:00,67.1,35.4,30.39,SSE,167,4.0,5.0,31,0.00,,,0.00,824,Wunderground v.1.15,2013-04-27 18:43:00,
2013-04-27 14:49:00,67.2,30.2,30.39,SE,126,3.0,6.0,25,0.00,,,0.00,816,Wunderground v.1.15,2013-04-27 18:49:00,
2013-04-27 14:55:00,67.0,31.0,30.39,South,191,4.0,5.0,26,0.00,,,0.00,803,Wunderground v.1.15,2013-04-27 18:55:00,
2013-04-27 15:00:00,66.9,32.7,30.38,SSW,207,3.0,3.0,28,0.00,,,0.00,793,Wunderground v.1.15,2013-04-27 19:00:00,
2013-04-27 15:06:00,67.2,33.0,30.38,West,267,2.0,3.0,28,0.00,,,0.00,784,Wunderground v.1.15,2013-04-27 19:06:00,
2013-04-27 15:12:00,67.7,33.4,30.38,South,174,2.0,4.0,28,0.00,,,0.00,772,Wunderground v.1.15,2013-04-27 19:12:00,
2013-04-27 15:18:00,67.4,30.3,30.38,SE,146,4.0,6.0,25,0.00,,,0.00,758,Wunderground v.1.15,2013-04-27 19:18:00,
2013-04-27 15:24:00,67.7,32.5,30.37,South,188,4.0,5.0,27,0.00,,,0.00,745,Wunderground v.1.15,2013-04-27 19:24:00,
2013-04-27 15:29:00,67.8,30.7,30.37,SSE,165,4.0,5.0,25,0.00,,,0.00,733,Wunderground v.1.15,2013-04-27 19:29:00,
2013-04-27 15:35:00,67.6,31.5,30.36,SE,142,4.0,6.0,26,0.00,,,0.00,719,Wunderground v.1.15,2013-04-27 19:35:00,
2013-04-27 15:41:00,68.1,31.9,30.36,SE,136,3.0,4.0,26,0.00,,,0.00,710,Wunderground v.1.15,2013-04-27 19:41:00,
2013-04-27 15:46:00,68.1,29.9,30.36,SE,130,3.0,6.0,24,0.00,,,0.00,693,Wunderground v.1.15,2013-04-27 19:46:00,
2013-04-27 15:52:00,67.8,29.7,30.36,East,87,4.0,6.0,24,0.00,,,0.00,677,Wunderground v.1.15,2013-04-27 19:52:00,
2013-04-27 15:58:00,67.4,30.3,30.36,South,186,4.0,8.0,25,0.00,,,0.00,661,Wunderground v.1.15,2013-04-27 19:58:00,
2013-04-27 16:04:00,67.6,33.3,30.35,SSW,201,3.0,3.0,28,0.00,,,0.00,649,Wunderground v.1.15,2013-04-27 20:04:00,
2013-04-27 16:09:00,68.0,30.8,30.35,SE,132,3.0,8.0,25,0.00,,,0.00,631,Wunderground v.1.15,2013-04-27 20:09:00,
2013-04-27 16:15:00,68.1,32.8,30.35,South,190,4.0,5.0,27,0.00,,,0.00,612,Wunderground v.1.15,2013-04-27 20:15:00,
2013-04-27 16:21:00,68.5,30.3,30.35,SE,133,3.0,7.0,24,0.00,,,0.00,598,Wunderground v.1.15,2013-04-27 20:21:00,
2013-04-27 16:26:00,68.3,31.1,30.35,South,176,3.0,7.0,25,0.00,,,0.00,584,Wunderground v.1.15,2013-04-27 20:26:00,
2013-04-27 16:31:00,68.4,33.1,30.35,ESE,121,3.0,3.0,27,0.00,,,0.00,568,Wunderground v.1.15,2013-04-27 20:31:00,
2013-04-27 16:37:00,68.7,31.4,30.35,WNW,302,3.0,4.0,25,0.00,,,0.00,550,Wunderground v.1.15,2013-04-27 20:37:00,
2013-04-27 16:42:00,69.2,32.8,30.34,NW,304,4.0,5.0,26,0.00,,,0.00,534,Wunderground v.1.15,2013-04-27 20:42:00,
2013-04-27 16:48:00,69.0,31.7,30.34,NNW,336,5.0,5.0,25,0.00,,,0.00,519,Wunderground v.1.15,2013-04-27 20:48:00,
2013-04-27 16:54:00,69.0,31.7,30.34,ENE,67,4.0,4.0,25,0.00,,,0.00,499,Wunderground v.1.15,2013-04-27 20:54:00,
2013-04-27 16:59:00,69.0,32.7,30.34,WSW,257,2.0,4.0,26,0.00,,,0.00,480,Wunderground v.1.15,2013-04-27 20:59:00,
2013-04-27 17:05:00,69.2,31.9,30.34,West,271,3.0,4.0,25,0.00,,,0.00,466,Wunderground v.1.15,2013-04-27 21:05:00,
2013-04-27 17:11:00,69.1,31.8,30.34,SW,236,2.0,6.0,25,0.00,,,0.00,446,Wunderground v.1.15,2013-04-27 21:11:00,
2013-04-27 17:17:00,69.1,31.8,30.34,WNW,296,2.0,6.0,25,0.00,,,0.00,427,Wunderground v.1.15,2013-04-27 21:17:00,
2013-04-27 17:23:00,68.8,31.5,30.34,SSW,198,3.0,6.0,25,0.00,,,0.00,63,Wunderground v.1.15,2013-04-27 21:23:00,
2013-04-27 17:29:00,68.7,31.4,30.34,South,180,2.0,6.0,25,0.00,,,0.00,62,Wunderground v.1.15,2013-04-27 21:29:00,
2013-04-27 17:35:00,68.6,32.3,30.34,WNW,284,2.0,4.0,26,0.00,,,0.00,60,Wunderground v.1.15,2013-04-27 21:35:00,
2013-04-27 17:40:00,68.5,31.3,30.34,WNW,290,2.0,2.0,25,0.00,,,0.00,62,Wunderground v.1.15,2013-04-27 21:40:00,
2013-04-27 17:46:00,68.7,32.4,30.34,SSW,196,2.0,3.0,26,0.00,,,0.00,58,Wunderground v.1.15,2013-04-27 21:46:00,
2013-04-27 17:52:00,69.0,31.7,30.34,NW,323,2.0,2.0,25,0.00,,,0.00,58,Wunderground v.1.15,2013-04-27 21:52:00,
2013-04-27 17:58:00,68.8,32.5,30.34,NNW,341,2.0,2.0,26,0.00,,,0.00,69,Wunderground v.1.15,2013-04-27 21:58:00,
2013-04-27 18:03:00,68.6,32.3,30.33,WNW,292,2.0,5.0,26,0.00,,,0.00,58,Wunderground v.1.15,2013-04-27 22:03:00,
2013-04-27 18:09:00,68.6,32.3,30.33,WNW,296,3.0,6.0,26,0.00,,,0.00,65,Wunderground v.1.15,2013-04-27 22:09:00,
2013-04-27 18:15:00,68.5,30.3,30.33,ESE,103,3.0,6.0,24,0.00,,,0.00,53,Wunderground v.1.15,2013-04-27 22:15:00,
2013-04-27 18:20:00,68.5,32.2,30.33,ENE,72,2.0,2.0,26,0.00,,,0.00,56,Wunderground v.1.15,2013-04-27 22:20:00,
2013-04-27 18:26:00,68.5,31.3,30.33,West,262,2.0,6.0,25,0.00,,,0.00,49,Wunderground v.1.15,2013-04-27 22:26:00,
2013-04-27 18:32:00,68.6,31.3,30.33,SSE,155,3.0,6.0,25,0.00,,,0.00,53,Wunderground v.1.15,2013-04-27 22:32:00,
2013-04-27 18:38:00,68.5,32.2,30.33,North,350,3.0,6.0,26,0.00,,,0.00,60,Wunderground v.1.15,2013-04-27 22:38:00,
2013-04-27 18:43:00,68.5,32.2,30.33,WNW,298,3.0,4.0,26,0.00,,,0.00,51,Wunderground v.1.15,2013-04-27 22:43:00,
2013-04-27 18:49:00,68.5,31.3,30.33,WNW,303,3.0,5.0,25,0.00,,,0.00,72,Wunderground v.1.15,2013-04-27 22:49:00,
2013-04-27 18:55:00,68.6,31.3,30.33,WNW,291,3.0,4.0,25,0.00,,,0.00,86,Wunderground v.1.15,2013-04-27 22:55:00,
2013-04-27 19:00:00,68.8,32.5,30.33,WNW,288,2.0,2.0,26,0.00,,,0.00,86,Wunderground v.1.15,2013-04-27 23:00:00,
2013-04-27 19:06:00,68.8,31.5,30.33,NNW,341,2.0,4.0,25,0.00,,,0.00,70,Wunderground v.1.15,2013-04-27 23:06:00,
2013-04-27 19:12:00,68.7,33.3,30.33,WNW,290,2.0,4.0,27,0.00,,,0.00,42,Wunderground v.1.15,2013-04-27 23:12:00,
2013-04-27 19:17:00,68.3,33.9,30.32,WNW,294,2.0,4.0,28,0.00,,,0.00,32,Wunderground v.1.15,2013-04-27 23:17:00,
2013-04-27 19:23:00,67.8,32.6,30.32,WNW,290,2.0,3.0,27,0.00,,,0.00,19,Wunderground v.1.15,2013-04-27 23:23:00,
2013-04-27 19:29:00,67.3,32.1,30.33,WNW,290,2.0,4.0,27,0.00,,,0.00,14,Wunderground v.1.15,2013-04-27 23:29:00,
2013-04-27 19:34:00,66.9,32.7,30.33,NW,306,2.0,3.0,28,0.00,,,0.00,11,Wunderground v.1.15,2013-04-27 23:34:00,
2013-04-27 19:40:00,66.4,34.0,30.33,West,275,3.0,3.0,30,0.00,,,0.00,9,Wunderground v.1.15,2013-04-27 23:40:00,
2013-04-27 19:45:00,66.1,32.9,30.32,WNW,297,2.0,3.0,29,0.00,,,0.00,5,Wunderground v.1.15,2013-04-27 23:45:00,
2013-04-27 19:51:00,65.7,33.4,30.33,WNW,294,1.0,1.0,30,0.00,,,0.00,5,Wunderground v.1.15,2013-04-27 23:51:00,
2013-04-27 19:57:00,65.2,35.4,30.33,NW,317,1.0,2.0,33,0.00,,,0.00,0,Wunderground v.1.15,2013-04-27 23:57:00,
2013-04-27 20:03:00,64.7,34.1,30.32,NW,325,1.0,2.0,32,0.00,,,0.00,0,Wunderground v.1.15,2013-04-28 00:03:00,
2013-04-27 20:08:00,64.5,34.0,30.32,NW,325,1.0,2.0,32,0.00,,,0.00,0,Wunderground v.1.15,2013-04-28 00:08:00,
2013-04-27 20:14:00,64.2,32.9,30.33,NW,313,1.0,1.0,31,0.00,,,0.00,0,Wunderground v.1.15,2013-04-28 00:14:00,
2013-04-27 20:19:00,64.0,34.3,30.32,South,186,1.0,2.0,33,0.00,,,0.00,0,Wunderground v.1.15,2013-04-28 00:19:00,
2013-04-27 20:25:00,63.8,34.9,30.33,SSE,167,1.0,1.0,34,0.00,,,0.00,0,Wunderground v.1.15,2013-04-28 00:25:00,
2013-04-27 20:31:00,63.6,33.9,30.32,SSE,155,1.0,2.0,33,0.00,,,0.00,0,Wunderground v.1.15,2013-04-28 00:31:00,
2013-04-27 20:37:00,63.5,36.0,30.33,SSW,198,1.0,2.0,36,0.00,,,0.00,0,Wunderground v.1.15,2013-04-28 00:37:00,
2013-04-27 20:42:00,62.9,35.5,30.33,WSW,251,1.0,1.0,36,0.00,,,0.00,0,Wunderground v.1.15,2013-04-28 00:42:00,
2013-04-27 20:48:00,62.3,35.0,30.33,WSW,251,0.0,1.0,36,0.00,,,0.00,0,Wunderground v.1.15,2013-04-28 00:48:00,
2013-04-27 20:54:00,62.0,34.7,30.33,WNW,283,1.0,1.0,36,0.00,,,0.00,0,Wunderground v.1.15,2013-04-28 00:54:00,
2013-04-27 20:59:00,61.9,34.6,30.33,WNW,283,1.0,1.0,36,0.00,,,0.00,0,Wunderground v.1.15,2013-04-28 00:59:00,
2013-04-27 21:05:00,61.6,35.7,30.33,WNW,283,0.0,1.0,38,0.00,,,0.00,0,Wunderground v.1.15,2013-04-28 01:05:00,
2013-04-27 21:10:00,61.2,35.4,30.33,WNW,283,1.0,1.0,38,0.00,,,0.00,0,Wunderground v.1.15,2013-04-28 01:10:00,
2013-04-27 21:15:00,60.8,35.0,30.33,WNW,283,0.0,1.0,38,0.00,,,0.00,0,Wunderground v.1.15,2013-04-28 01:15:00,
2013-04-27 21:21:00,60.6,35.5,30.33,WNW,283,0.0,1.0,39,0.00,,,0.00,0,Wunderground v.1.15,2013-04-28 01:21:00,
2013-04-27 21:27:00,60.2,35.1,30.33,WNW,288,1.0,1.0,39,0.00,,,0.00,0,Wunderground v.1.15,2013-04-28 01:27:00,
2013-04-27 21:33:00,60.0,35.0,30.34,WNW,288,1.0,1.0,39,0.00,,,0.00,0,Wunderground v.1.15,2013-04-28 01:33:00,
2013-04-27 21:38:00,59.8,34.8,30.34,WNW,288,0.0,1.0,39,0.00,,,0.00,0,Wunderground v.1.15,2013-04-28 01:38:00,
2013-04-27 21:44:00,59.8,34.8,30.34,WNW,288,1.0,1.0,39,0.00,,,0.00,0,Wunderground v.1.15,2013-04-28 01:44:00,
2013-04-27 21:49:00,59.5,35.8,30.34,WNW,288,1.0,1.0,41,0.00,,,0.00,0,Wunderground v.1.15,2013-04-28 01:49:00,
2013-04-27 21:55:00,59.2,35.5,30.34,WNW,288,1.0,1.0,41,0.00,,,0.00,0,Wunderground v.1.15,2013-04-28 01:55:00,
2013-04-27 22:00:00,58.9,35.8,30.34,WNW,288,1.0,1.0,42,0.00,,,0.00,0,Wunderground v.1.15,2013-04-28 02:00:00,
2013-04-27 22:06:00,58.6,35.6,30.34,WNW,288,1.0,1.0,42,0.00,,,0.00,0,Wunderground v.1.15,2013-04-28 02:06:00,
2013-04-27 22:12:00,58.4,35.4,30.34,WNW,292,1.0,1.0,42,0.00,,,0.00,0,Wunderground v.1.15,2013-04-28 02:12:00,
2013-04-27 22:17:00,58.3,35.3,30.34,WNW,292,1.0,2.0,42,0.00,,,0.00,0,Wunderground v.1.15,2013-04-28 02:17:00,
2013-04-27 22:23:00,58.3,35.3,30.34,WNW,292,1.0,1.0,42,0.00,,,0.00,0,Wunderground v.1.15,2013-04-28 02:23:00,
2013-04-27 22:29:00,58.4,34.8,30.33,WNW,292,1.0,1.0,41,0.00,,,0.00,0,Wunderground v.1.15,2013-04-28 02:29:00,
2013-04-27 22:34:00,58.3,34.7,30.33,WNW,292,1.0,1.0,41,0.00,,,0.00,0,Wunderground v.1.15,2013-04-28 02:34:00,
2013-04-27 22:40:00,58.2,34.6,30.33,WNW,301,1.0,1.0,41,0.00,,,0.00,0,Wunderground v.1.15,2013-04-28 02:40:00,
2013-04-27 22:45:00,58.2,35.2,30.33,WNW,301,1.0,1.0,42,0.00,,,0.00,0,Wunderground v.1.15,2013-04-28 02:45:00,
2013-04-27 22:51:00,57.8,37.1,30.33,WNW,301,0.0,1.0,46,0.00,,,0.00,0,Wunderground v.1.15,2013-04-28 02:51:00,
2013-04-27 22:57:00,57.4,35.6,30.33,WNW,301,0.0,1.0,44,0.00,,,0.00,0,Wunderground v.1.15,2013-04-28 02:57:00,
2013-04-27 23:02:00,57.3,35.6,30.33,WNW,301,1.0,1.0,44,0.00,,,0.00,0,Wunderground v.1.15,2013-04-28 03:02:00,
2013-04-27 23:08:00,56.8,37.8,30.33,SSW,200,1.0,1.0,49,0.00,,,0.00,0,Wunderground v.1.15,2013-04-28 03:08:00,
2013-04-27 23:14:00,55.7,38.3,30.33,SSW,200,1.0,1.0,52,0.00,,,0.00,0,Wunderground v.1.15,2013-04-28 03:14:00,
2013-04-27 23:20:00,55.1,38.3,30.33,SSW,200,1.0,1.0,53,0.00,,,0.00,0,Wunderground v.1.15,2013-04-28 03:20:00,
2013-04-27 23:26:00,54.8,37.5,30.33,SSW,200,0.0,1.0,52,0.00,,,0.00,0,Wunderground v.1.15,2013-04-28 03:26:00,
2013-04-27 23:32:00,54.5,38.2,30.33,South,187,1.0,2.0,54,0.00,,,0.00,0,Wunderground v.1.15,2013-04-28 03:32:00,
2013-04-27 23:38:00,54.3,38.9,30.33,South,187,1.0,2.0,56,0.00,,,0.00,0,Wunderground v.1.15,2013-04-28 03:38:00,
2013-04-27 23:43:00,54.0,38.6,30.33,South,187,0.0,1.0,56,0.00,,,0.00,0,Wunderground v.1.15,2013-04-28 03:43:00,
2013-04-27 23:49:00,53.9,39.9,30.33,South,187,0.0,1.0,59,0.00,,,0.00,0,Wunderground v.1.15,2013-04-28 03:49:00,
2013-04-27 23:55:00,53.4,40.3,30.33,South,187,1.0,2.0,61,0.00,,,0.00,0,Wunderground v.1.15,2013-04-28 03:55:00,